createdAt,value
2023-04-18T00:02:07.341Z,102623.00
2023-04-18T00:05:33.546Z,102622.00
2023-04-18T00:08:00.636Z,102619.00
2023-04-18T00:10:33.182Z,102622.00
2023-04-18T00:13:18.594Z,102605.00
2023-04-18T00:15:46.285Z,102597.00
2023-04-18T00:18:17.057Z,102618.00
2023-04-18T00:20:44.023Z,102610.00
2023-04-18T00:23:13.830Z,102617.00
2023-04-18T00:25:41.182Z,102607.00
2023-04-18T00:28:08.004Z,102612.00
2023-04-18T00:30:34.948Z,102598.00
2023-04-18T00:33:01.847Z,102603.00
2023-04-18T00:35:28.689Z,102621.00
2023-04-18T00:37:55.955Z,102610.00
2023-04-18T00:40:22.796Z,102604.00
2023-04-18T00:42:49.630Z,102606.00
2023-04-18T00:45:16.526Z,102602.00
2023-04-18T00:47:43.332Z,102609.00
2023-04-18T00:50:10.919Z,102619.00
2023-04-18T00:52:37.733Z,102598.00
2023-04-18T00:55:29.578Z,102604.00
2023-04-18T00:57:59.191Z,102605.00
2023-04-18T01:00:25.989Z,102607.00
2023-04-18T01:02:55.679Z,102618.00
2023-04-18T01:05:40.863Z,102610.00
2023-04-18T01:08:07.721Z,102601.00
2023-04-18T01:10:49.690Z,102603.00
2023-04-18T01:13:37.862Z,102604.00
2023-04-18T01:19:23.546Z,102610.00
2023-04-18T01:22:03.271Z,102609.00
2023-04-18T01:24:42.546Z,102594.00
2023-04-18T01:27:24.386Z,102603.00
2023-04-18T01:29:51.138Z,102604.00
2023-04-18T01:32:24.240Z,102598.00
2023-04-18T01:34:53.921Z,102602.00
2023-04-18T01:37:44.869Z,102610.00
2023-04-18T01:40:52.313Z,102612.00
2023-04-18T01:43:22.126Z,102606.00
2023-04-18T01:45:48.999Z,102611.00
2023-04-18T01:48:40.052Z,102607.00
2023-04-18T01:51:50.695Z,102612.00
2023-04-18T01:54:35.884Z,102603.00
2023-04-18T01:57:40.198Z,102614.00
2023-04-18T02:03:22.797Z,102609.00
2023-04-18T02:09:30.552Z,102605.00
2023-04-18T02:13:12.309Z,102611.00
2023-04-18T02:16:03.888Z,102617.00
2023-04-18T02:18:54.760Z,102623.00
2023-04-18T02:21:39.060Z,102617.00
2023-04-18T02:24:12.191Z,102626.00
2023-04-18T02:27:00.892Z,102632.00
2023-04-18T02:30:01.573Z,102633.00
2023-04-18T02:32:34.583Z,102633.00
2023-04-18T02:35:25.632Z,102639.00
2023-04-18T02:44:17.902Z,102661.00
2023-04-18T02:47:55.589Z,102659.00
2023-04-18T02:50:54.027Z,102659.00
2023-04-18T02:53:33.476Z,102661.00
2023-04-18T02:56:00.404Z,102684.00
2023-04-18T02:59:07.866Z,102677.00
2023-04-18T03:02:12.449Z,102678.00
2023-04-18T03:04:54.412Z,102685.00
2023-04-18T03:08:17.608Z,102681.00
2023-04-18T03:15:19.296Z,102689.00
2023-04-18T03:17:46.077Z,102688.00
2023-04-18T03:20:28.282Z,102686.00
2023-04-18T03:26:47.910Z,102698.00
2023-04-18T03:29:26.569Z,102686.00
2023-04-18T03:32:08.518Z,102714.00
2023-04-18T03:38:56.750Z,102698.00
2023-04-18T03:41:38.539Z,102691.00
2023-04-18T03:44:05.588Z,102704.00
2023-04-18T03:46:51.239Z,102699.00
2023-04-18T03:49:33.338Z,102708.00
2023-04-18T03:52:09.328Z,102710.00
2023-04-18T03:54:54.360Z,102700.00
2023-04-18T03:57:24.496Z,102712.00
2023-04-18T04:04:15.024Z,102684.00
2023-04-18T04:06:44.873Z,102699.00
2023-04-18T04:09:20.816Z,102698.00
2023-04-18T04:16:00.384Z,102697.00
2023-04-18T04:18:33.427Z,102690.00
2023-04-18T04:24:44.384Z,102700.00
2023-04-18T04:27:12.618Z,102690.00
2023-04-18T04:29:39.868Z,102702.00
2023-04-18T04:32:08.137Z,102697.00
2023-04-18T04:34:35.760Z,102715.00
2023-04-18T04:37:03.287Z,102712.00
2023-04-18T04:39:30.159Z,102711.00
2023-04-18T04:41:57.623Z,102718.00
2023-04-18T04:44:26.108Z,102729.00
2023-04-18T04:46:54.425Z,102746.00
2023-04-18T04:49:21.930Z,102763.00
2023-04-18T04:51:51.761Z,102771.00
2023-04-18T04:54:18.556Z,102772.00
2023-04-18T04:56:45.456Z,102782.00
2023-04-18T04:59:12.198Z,102787.00
2023-04-18T05:01:39.022Z,102776.00
2023-04-18T05:04:05.934Z,102775.00
2023-04-18T05:06:32.942Z,102782.00
2023-04-18T05:09:00.965Z,102789.00
2023-04-18T05:11:27.833Z,102792.00
2023-04-18T05:13:54.916Z,102781.00
2023-04-18T05:16:21.756Z,102783.00
2023-04-18T05:18:48.655Z,102771.00
2023-04-18T05:21:15.509Z,102765.00
2023-04-18T05:23:42.296Z,102765.00
2023-04-18T05:26:09.067Z,102771.00
2023-04-18T05:28:35.921Z,102759.00
2023-04-18T05:31:02.935Z,102777.00
2023-04-18T05:33:32.904Z,102774.00
2023-04-18T05:35:59.783Z,102776.00
2023-04-18T05:38:26.615Z,102776.00
2023-04-18T05:40:55.599Z,102765.00
2023-04-18T05:43:23.295Z,102757.00
2023-04-18T05:45:52.284Z,102758.00
2023-04-18T05:48:19.442Z,102756.00
2023-04-18T05:50:46.296Z,102768.00
2023-04-18T05:53:13.060Z,102764.00
2023-04-18T05:55:40.980Z,102768.00
2023-04-18T05:58:07.840Z,102758.00
2023-04-18T06:00:35.196Z,102769.00
2023-04-18T06:03:02.214Z,102768.00
2023-04-18T06:05:29.493Z,102774.00
2023-04-18T06:07:56.484Z,102764.00
2023-04-18T06:10:23.413Z,102778.00
2023-04-18T06:12:50.569Z,102769.00
2023-04-18T06:15:17.380Z,102774.00
2023-04-18T06:17:44.774Z,102775.00
2023-04-18T06:20:11.696Z,102790.00
2023-04-18T06:22:38.568Z,102788.00
2023-04-18T06:25:05.817Z,102792.00
2023-04-18T06:27:32.635Z,102796.00
2023-04-18T06:29:59.442Z,102800.00
2023-04-18T06:32:26.427Z,102803.00
2023-04-18T06:34:53.319Z,102805.00
2023-04-18T06:37:20.638Z,102810.00
2023-04-18T06:39:47.573Z,102818.00
2023-04-18T06:42:14.376Z,102816.00
2023-04-18T06:44:42.953Z,102830.00
2023-04-18T06:47:10.556Z,102827.00
2023-04-18T06:49:37.346Z,102823.00
2023-04-18T06:52:04.114Z,102828.00
2023-04-18T06:54:30.916Z,102827.00
2023-04-18T06:56:57.736Z,102825.00
2023-04-18T06:59:26.661Z,102828.00
2023-04-18T07:01:53.518Z,102836.00
2023-04-18T07:04:20.606Z,102846.00
2023-04-18T07:06:47.542Z,102847.00
2023-04-18T07:09:14.308Z,102830.00
2023-04-18T07:11:41.135Z,102844.00
2023-04-18T07:14:08.019Z,102845.00
2023-04-18T07:16:34.879Z,102831.00
2023-04-18T07:19:01.670Z,102857.00
2023-04-18T07:21:28.440Z,102845.00
2023-04-18T07:23:55.328Z,102848.00
2023-04-18T07:26:22.254Z,102852.00
2023-04-18T07:28:49.151Z,102861.00
2023-04-18T07:31:16.614Z,102863.00
2023-04-18T07:33:43.633Z,102861.00
2023-04-18T07:36:10.907Z,102848.00
2023-04-18T07:38:37.929Z,102884.00
2023-04-18T07:41:04.811Z,102876.00
2023-04-18T07:43:31.700Z,102874.00
2023-04-18T07:45:58.662Z,102879.00
2023-04-18T07:48:26.060Z,102890.00
2023-04-18T07:50:53.902Z,102879.00
2023-04-18T07:53:21.162Z,102875.00
2023-04-18T07:55:48.269Z,102879.00
2023-04-18T07:58:15.352Z,102897.00
2023-04-18T08:00:43.903Z,102881.00
2023-04-18T08:03:12.530Z,102879.00
2023-04-18T08:05:40.558Z,102899.00
2023-04-18T08:08:08.875Z,102883.00
2023-04-18T08:10:36.078Z,102900.00
2023-04-18T08:13:03.540Z,102899.00
2023-04-18T08:15:32.629Z,102901.00
2023-04-18T08:18:01.042Z,102905.00
2023-04-18T08:20:28.067Z,102882.00
2023-04-18T08:25:24.637Z,102908.00
2023-04-18T08:27:51.494Z,102912.00
2023-04-18T08:30:18.407Z,102920.00
2023-04-18T08:32:45.293Z,102930.00
2023-04-18T08:35:12.201Z,102922.00
2023-04-18T08:37:39.258Z,102924.00
2023-04-18T08:40:07.369Z,102923.00
2023-04-18T08:42:35.741Z,102937.00
2023-04-18T08:45:02.743Z,102930.00
2023-04-18T08:47:30.053Z,102943.00
2023-04-18T08:49:58.470Z,102946.00
2023-04-18T08:52:27.244Z,102933.00
2023-04-18T08:54:54.090Z,102943.00
2023-04-18T08:57:26.812Z,102935.00
2023-04-18T08:59:54.423Z,102927.00
2023-04-18T09:02:23.315Z,102933.00
2023-04-18T09:04:53.111Z,102936.00
2023-04-18T09:07:26.882Z,102940.00
2023-04-18T09:09:56.597Z,102947.00
2023-04-18T09:12:25.498Z,102933.00
2023-04-18T09:14:57.544Z,102940.00
2023-04-18T09:17:36.965Z,102946.00
2023-04-18T09:20:05.373Z,102936.00
2023-04-18T09:22:52.433Z,102940.00
2023-04-18T09:25:34.469Z,102939.00
2023-04-18T09:28:27.985Z,102948.00
2023-04-18T09:31:07.523Z,102939.00
2023-04-18T09:33:34.656Z,102954.00
2023-04-18T09:36:23.998Z,102931.00
2023-04-18T09:38:55.364Z,102946.00
2023-04-18T09:41:23.462Z,102943.00
2023-04-18T09:44:07.566Z,102936.00
2023-04-18T09:46:34.504Z,102947.00
2023-04-18T09:49:02.092Z,102945.00
2023-04-18T09:51:29.655Z,102937.00
2023-04-18T09:53:56.537Z,102944.00
2023-04-18T09:56:26.016Z,102936.00
2023-04-18T09:58:59.224Z,102950.00
2023-04-18T10:01:28.463Z,102943.00
2023-04-18T10:03:55.769Z,102942.00
2023-04-18T10:06:22.930Z,102956.00
2023-04-18T10:08:51.442Z,102955.00
2023-04-18T10:11:19.198Z,102945.00
2023-04-18T10:13:53.183Z,102956.00
2023-04-18T10:16:20.483Z,102949.00
2023-04-18T10:18:49.509Z,102930.00
2023-04-18T10:21:16.728Z,102954.00
2023-04-18T10:23:43.923Z,102934.00
2023-04-18T10:26:11.014Z,102952.00
2023-04-18T10:28:58.745Z,102947.00
2023-04-18T10:31:27.458Z,102956.00
2023-04-18T10:36:26.855Z,102943.00
2023-04-18T10:38:55.386Z,102944.00
2023-04-18T10:41:23.152Z,102956.00
2023-04-18T10:44:09.136Z,102946.00
2023-04-18T10:46:43.922Z,102944.00
2023-04-18T10:49:23.269Z,102942.00
2023-04-18T10:51:52.955Z,102955.00
2023-04-18T10:54:32.277Z,102956.00
2023-04-18T10:57:04.237Z,102951.00
2023-04-18T10:59:33.017Z,102959.00
2023-04-18T11:02:04.266Z,102957.00
2023-04-18T11:04:31.396Z,102957.00
2023-04-18T11:06:58.555Z,102955.00
2023-04-18T11:09:25.762Z,102941.00
2023-04-18T11:12:11.252Z,102951.00
2023-04-18T11:14:54.301Z,102955.00
2023-04-18T11:17:25.206Z,102938.00
2023-04-18T11:20:01.104Z,102944.00
2023-04-18T11:22:28.135Z,102950.00
2023-04-18T11:25:00.144Z,102934.00
2023-04-18T11:27:27.327Z,102958.00
2023-04-18T11:29:55.053Z,102948.00
2023-04-18T11:32:23.966Z,102941.00
2023-04-18T11:34:52.958Z,102930.00
2023-04-18T11:37:20.919Z,102926.00
2023-04-18T11:39:47.844Z,102919.00
2023-04-18T11:42:14.825Z,102910.00
2023-04-18T11:44:45.901Z,102923.00
2023-04-18T11:47:29.735Z,102913.00
2023-04-18T11:49:58.351Z,102933.00
2023-04-18T11:52:27.057Z,102915.00
2023-04-18T11:54:54.259Z,102925.00
2023-04-18T11:57:24.465Z,102932.00
2023-04-18T11:59:56.800Z,102929.00
2023-04-18T12:02:26.519Z,102934.00
2023-04-18T12:04:59.415Z,102933.00
2023-04-18T12:07:35.144Z,102937.00
2023-04-18T12:10:03.478Z,102936.00
2023-04-18T12:12:30.634Z,102946.00
2023-04-18T12:14:59.295Z,102924.00
2023-04-18T12:17:27.439Z,102927.00
2023-04-18T12:19:55.479Z,102950.00
2023-04-18T12:22:44.609Z,102943.00
2023-04-18T12:25:27.294Z,102943.00
2023-04-18T12:28:16.223Z,102927.00
2023-04-18T12:30:43.101Z,102943.00
2023-04-18T12:33:10.036Z,102940.00
2023-04-18T12:35:36.934Z,102943.00
2023-04-18T12:38:05.015Z,102937.00
2023-04-18T12:40:31.901Z,102938.00
2023-04-18T12:42:58.803Z,102938.00
2023-04-18T12:45:25.703Z,102923.00
2023-04-18T12:47:53.379Z,102915.00
2023-04-18T12:50:22.543Z,102923.00
2023-04-18T12:52:51.344Z,102913.00
2023-04-18T12:55:18.288Z,102905.00
2023-04-18T12:57:45.159Z,102889.00
2023-04-18T13:00:13.450Z,102916.00
2023-04-18T13:02:42.241Z,102906.00
2023-04-18T13:05:11.353Z,102914.00
2023-04-18T13:07:40.431Z,102905.00
2023-04-18T13:10:09.295Z,102913.00
2023-04-18T13:12:36.277Z,102897.00
2023-04-18T13:15:03.903Z,102885.00
2023-04-18T13:17:31.019Z,102886.00
2023-04-18T13:19:57.853Z,102863.00
2023-04-18T13:22:24.748Z,102868.00
2023-04-18T13:24:53.124Z,102875.00
2023-04-18T13:27:20.339Z,102869.00
2023-04-18T13:29:47.279Z,102865.00
2023-04-18T13:32:14.125Z,102863.00
2023-04-18T13:34:46.200Z,102862.00
2023-04-18T13:37:16.514Z,102865.00
2023-04-18T13:39:43.729Z,102857.00
2023-04-18T13:42:10.579Z,102851.00
2023-04-18T13:44:39.546Z,102862.00
2023-04-18T13:47:07.210Z,102859.00
2023-04-18T13:49:34.846Z,102876.00
2023-04-18T13:52:04.917Z,102885.00
2023-04-18T13:54:34.557Z,102877.00
2023-04-18T13:57:05.894Z,102865.00
2023-04-18T13:59:33.634Z,102885.00
2023-04-18T14:02:00.686Z,102859.00
2023-04-18T14:04:28.186Z,102878.00
2023-04-18T14:06:55.147Z,102886.00
2023-04-18T14:09:22.174Z,102888.00
2023-04-18T14:11:49.221Z,102890.00
2023-04-18T14:14:16.201Z,102885.00
2023-04-18T14:16:43.111Z,102873.00
2023-04-18T14:19:10.129Z,102873.00
2023-04-18T14:21:37.158Z,102863.00
2023-04-18T14:24:05.866Z,102856.00
2023-04-18T14:26:32.760Z,102868.00
2023-04-18T14:28:59.677Z,102876.00
2023-04-18T14:31:28.160Z,102886.00
2023-04-18T14:33:55.302Z,102870.00
2023-04-18T14:36:22.231Z,102877.00
2023-04-18T14:38:50.223Z,102872.00
2023-04-18T14:41:17.177Z,102860.00
2023-04-18T14:43:44.201Z,102879.00
2023-04-18T14:46:13.236Z,102889.00
2023-04-18T14:48:40.159Z,102888.00
2023-04-18T14:51:07.828Z,102896.00
2023-04-18T14:53:34.894Z,102889.00
2023-04-18T14:56:01.782Z,102891.00
2023-04-18T14:58:28.633Z,102905.00
2023-04-18T15:00:55.766Z,102898.00
2023-04-18T15:03:22.736Z,102907.00
2023-04-18T15:05:49.723Z,102902.00
2023-04-18T15:08:16.572Z,102901.00
2023-04-18T15:10:44.541Z,102888.00
2023-04-18T15:13:11.643Z,102908.00
2023-04-18T15:15:39.839Z,102903.00
2023-04-18T15:18:08.363Z,102887.00
2023-04-18T15:20:39.513Z,102884.00
2023-04-18T15:23:06.490Z,102885.00
2023-04-18T15:25:35.178Z,102882.00
2023-04-18T15:28:02.164Z,102887.00
2023-04-18T15:30:29.121Z,102885.00
2023-04-18T15:32:55.957Z,102882.00
2023-04-18T15:35:23.116Z,102878.00
2023-04-18T15:37:51.351Z,102871.00
2023-04-18T15:40:18.731Z,102886.00
2023-04-18T15:42:46.034Z,102871.00
2023-04-18T15:45:13.131Z,102868.00
2023-04-18T15:47:40.647Z,102869.00
2023-04-18T15:50:08.716Z,102886.00
2023-04-18T15:52:36.316Z,102868.00
2023-04-18T15:55:03.466Z,102876.00
2023-04-18T15:57:30.978Z,102875.00
2023-04-18T15:59:59.520Z,102869.00
2023-04-18T16:02:27.123Z,102859.00
2023-04-18T16:04:54.046Z,102860.00
2023-04-18T16:07:21.094Z,102859.00
2023-04-18T16:09:48.198Z,102879.00
2023-04-18T16:12:15.605Z,102853.00
2023-04-18T16:14:42.911Z,102858.00
2023-04-18T16:17:09.802Z,102856.00
2023-04-18T16:19:39.096Z,102860.00
2023-04-18T16:22:07.214Z,102869.00
2023-04-18T16:24:34.365Z,102858.00
2023-04-18T16:27:01.330Z,102856.00
2023-04-18T16:29:28.298Z,102860.00
2023-04-18T16:31:56.026Z,102865.00
2023-04-18T16:34:22.950Z,102871.00
2023-04-18T16:36:51.165Z,102869.00
2023-04-18T16:39:19.238Z,102876.00
2023-04-18T16:41:46.156Z,102873.00
2023-04-18T16:44:13.173Z,102884.00
2023-04-18T16:46:40.294Z,102898.00
2023-04-18T16:49:07.192Z,102891.00
2023-04-18T16:51:36.264Z,102886.00
2023-04-18T16:54:03.812Z,102891.00
2023-04-18T16:56:30.698Z,102911.00
2023-04-18T16:58:58.256Z,102905.00
2023-04-18T17:01:25.204Z,102912.00
2023-04-18T17:03:55.146Z,102910.00
2023-04-18T17:06:24.898Z,102911.00
2023-04-18T17:08:53.531Z,102917.00
2023-04-18T17:11:23.353Z,102909.00
2023-04-18T17:13:51.222Z,102930.00
2023-04-18T17:16:21.155Z,102937.00
2023-04-18T17:18:47.966Z,102933.00
2023-04-18T17:21:14.737Z,102927.00
2023-04-18T17:23:42.503Z,102917.00
2023-04-18T17:26:09.942Z,102931.00
2023-04-18T17:28:37.018Z,102936.00
2023-04-18T17:31:04.033Z,102941.00
2023-04-18T17:33:31.480Z,102942.00
2023-04-18T17:35:58.446Z,102955.00
2023-04-18T17:38:25.472Z,102952.00
2023-04-18T17:41:00.183Z,102953.00
2023-04-18T17:43:27.088Z,102964.00
2023-04-18T17:45:54.121Z,102952.00
2023-04-18T17:48:21.224Z,102958.00
2023-04-18T17:50:48.075Z,102958.00
2023-04-18T17:53:14.872Z,102956.00
2023-04-18T17:55:41.721Z,102955.00
2023-04-18T17:58:09.110Z,102956.00
2023-04-18T18:00:36.143Z,102960.00
2023-04-18T18:03:03.575Z,102958.00
2023-04-18T18:05:30.751Z,102961.00
2023-04-18T18:07:59.466Z,102962.00
2023-04-18T18:10:26.669Z,102968.00
2023-04-18T18:12:55.658Z,102953.00
2023-04-18T18:15:24.089Z,102955.00
2023-04-18T18:17:51.709Z,102956.00
2023-04-18T18:20:19.505Z,102963.00
2023-04-18T18:22:46.368Z,102960.00
2023-04-18T18:25:13.492Z,102955.00
2023-04-18T18:27:40.999Z,102951.00
2023-04-18T18:30:08.373Z,102961.00
2023-04-18T18:32:35.480Z,102951.00
2023-04-18T18:35:04.960Z,102950.00
2023-04-18T18:37:32.483Z,102945.00
2023-04-18T18:39:59.956Z,102947.00
2023-04-18T18:42:26.880Z,102946.00
2023-04-18T18:44:53.739Z,102944.00
2023-04-18T18:47:21.012Z,102937.00
2023-04-18T18:49:48.959Z,102938.00
2023-04-18T18:52:16.050Z,102926.00
2023-04-18T18:54:43.041Z,102942.00
2023-04-18T18:57:10.107Z,102938.00
2023-04-18T18:59:36.921Z,102938.00
2023-04-18T19:02:04.294Z,102937.00
2023-04-18T19:04:31.416Z,102932.00
2023-04-18T19:06:58.405Z,102924.00
2023-04-18T19:09:25.214Z,102930.00
2023-04-18T19:11:52.067Z,102935.00
2023-04-18T19:14:18.906Z,102926.00
2023-04-18T19:16:45.910Z,102926.00
2023-04-18T19:19:13.106Z,102930.00
2023-04-18T19:21:45.649Z,102934.00
2023-04-18T19:24:13.177Z,102903.00
2023-04-18T19:26:41.806Z,102929.00
2023-04-18T19:29:10.074Z,102917.00
2023-04-18T19:31:37.000Z,102910.00
2023-04-18T19:34:03.901Z,102923.00
2023-04-18T19:36:32.092Z,102924.00
2023-04-18T19:38:58.986Z,102934.00
2023-04-18T19:41:26.400Z,102930.00
2023-04-18T19:43:53.746Z,102928.00
2023-04-18T19:46:20.651Z,102923.00
2023-04-18T19:48:47.487Z,102914.00
2023-04-18T19:51:16.056Z,102924.00
2023-04-18T19:53:42.982Z,102912.00
2023-04-18T19:56:11.273Z,102913.00
2023-04-18T19:58:44.718Z,102913.00
2023-04-18T20:01:14.913Z,102923.00
2023-04-18T20:03:44.628Z,102933.00
2023-04-18T20:06:11.696Z,102933.00
2023-04-18T20:08:45.394Z,102940.00
2023-04-18T20:11:22.730Z,102926.00
2023-04-18T20:13:52.207Z,102938.00
2023-04-18T20:16:19.097Z,102933.00
2023-04-18T20:18:47.362Z,102935.00
2023-04-18T20:21:14.381Z,102944.00
2023-04-18T20:23:42.561Z,102941.00
2023-04-18T20:26:09.669Z,102936.00
2023-04-18T20:28:37.872Z,102946.00
2023-04-18T20:31:04.879Z,102937.00
2023-04-18T20:33:31.824Z,102934.00
2023-04-18T20:35:58.974Z,102943.00
2023-04-18T20:38:29.576Z,102923.00
2023-04-18T20:40:58.865Z,102924.00
2023-04-18T20:43:25.999Z,102923.00
2023-04-18T20:45:57.749Z,102913.00
2023-04-18T20:48:24.706Z,102919.00
2023-04-18T20:50:51.734Z,102922.00
2023-04-18T20:53:27.000Z,102915.00
2023-04-18T20:55:54.181Z,102906.00
2023-04-18T20:58:21.196Z,102902.00
2023-04-18T21:00:48.885Z,102907.00
2023-04-18T21:03:16.486Z,102915.00
2023-04-18T21:05:44.300Z,102908.00
2023-04-18T21:08:11.480Z,102914.00
2023-04-18T21:10:38.391Z,102920.00
2023-04-18T21:13:05.278Z,102917.00
2023-04-18T21:15:32.163Z,102923.00
2023-04-18T21:17:58.989Z,102916.00
2023-04-18T21:20:25.961Z,102928.00
2023-04-18T21:29:58.490Z,102920.00
2023-04-18T21:35:17.131Z,102929.00
2023-04-18T21:40:33.405Z,102924.00
2023-04-18T21:43:03.366Z,102921.00
2023-04-18T21:46:01.219Z,102917.00
2023-04-18T21:52:21.371Z,102913.00
2023-04-18T21:54:48.162Z,102914.00
2023-04-18T21:57:15.095Z,102913.00
2023-04-18T21:59:45.054Z,102903.00
2023-04-18T22:09:40.624Z,102895.00
2023-04-18T22:15:13.342Z,102902.00
2023-04-18T22:18:14.379Z,102897.00
2023-04-18T22:21:01.497Z,102905.00
2023-04-18T22:23:49.955Z,102911.00
2023-04-18T22:30:06.836Z,102898.00
2023-04-18T22:33:29.306Z,102901.00
2023-04-18T22:40:35.143Z,102890.00
2023-04-18T22:46:26.702Z,102899.00
2023-04-18T22:48:54.176Z,102898.00
2023-04-18T22:51:36.064Z,102898.00
2023-04-18T22:54:15.686Z,102898.00
2023-04-18T22:57:00.732Z,102886.00
2023-04-18T23:00:32.693Z,102895.00
2023-04-18T23:03:52.987Z,102888.00
2023-04-18T23:13:57.150Z,102883.00
2023-04-18T23:17:01.503Z,102873.00
2023-04-18T23:20:30.564Z,102867.00
2023-04-18T23:23:35.172Z,102880.00
2023-04-18T23:26:02.001Z,102861.00
2023-04-18T23:28:32.737Z,102868.00
2023-04-18T23:31:43.562Z,102858.00
2023-04-18T23:34:13.902Z,102867.00
2023-04-18T23:36:46.770Z,102860.00
2023-04-18T23:39:57.340Z,102868.00
2023-04-18T23:43:07.923Z,102859.00
2023-04-18T23:46:05.712Z,102848.00
2023-04-18T23:48:44.961Z,102860.00
2023-04-18T23:51:49.119Z,102854.00
2023-04-18T23:54:19.048Z,102856.00
